Time;durP1;ratioP1;P1;durP2;ratioP2;P2;SDS_P1;SDS_P2;PMS_P1;PMS_P2;Temp;Humidity;BMP_temperature;BMP_pressure;BME280_temperature;BME280_humidity;BME280_pressure;Samples;Min_cycle;Max_cycle;Signal;HPM_P1;HPM_P2
2022/11/06 00:00:57;;;;;;;9.98;9.18;;;;;;;28.88;54.87;101247.56;4997993;28;66466;-34
2022/11/06 00:03:27;;;;;;;9.38;8.77;;;;;;;28.74;55.04;101226.91;4993154;28;69961;-35
2022/11/06 00:08:46;;;;;;;9.88;8.95;;;;;;;28.87;55.16;101254.00;4995097;28;70182;-35
2022/11/06 00:11:17;;;;;;;9.70;9.00;;;;;;;28.88;55.62;101239.47;5000480;28;65318;-35
2022/11/06 00:13:48;;;;;;;9.40;8.73;;;;;;;28.83;55.51;101228.41;4998128;28;70869;-36
2022/11/06 00:16:19;;;;;;;11.82;9.20;;;;;;;29.05;56.17;101271.59;5000476;28;65997;-36
2022/11/06 00:18:50;;;;;;;11.25;9.90;;;;;;;29.06;56.01;101263.31;4993830;28;70002;-35
2022/11/06 00:21:23;;;;;;;10.32;9.63;;;;;;;29.11;56.49;101271.66;4997213;28;66352;-36
2022/11/06 00:23:55;;;;;;;9.48;8.45;;;;;;;29.08;56.94;101268.50;4999037;28;70491;-36
2022/11/06 00:26:27;;;;;;;14.75;9.77;;;;;;;28.77;56.46;101221.13;4994883;28;65795;-35
2022/11/06 00:28:58;;;;;;;10.75;9.30;;;;;;;29.19;56.64;101281.44;4997663;28;69638;-35
2022/11/06 00:31:32;;;;;;;17.77;8.60;;;;;;;29.21;56.91;101287.47;4997590;28;65756;-35
2022/11/06 00:34:03;;;;;;;12.10;9.80;;;;;;;29.06;57.31;101262.44;4998567;28;68677;-36
2022/11/06 00:36:34;;;;;;;9.52;8.95;;;;;;;29.23;57.40;101290.81;4996876;28;66442;-36
2022/11/06 00:39:04;;;;;;;12.77;8.93;;;;;;;29.27;57.54;101297.50;4997421;28;70953;-35
2022/11/06 00:41:34;;;;;;;9.32;8.73;;;;;;;29.24;57.69;101291.66;4997295;28;66150;-36
2022/11/06 00:44:08;;;;;;;10.27;9.57;;;;;;;29.29;57.49;101294.59;5000444;28;43733;-36
2022/11/06 00:46:38;;;;;;;9.90;9.20;;;;;;;29.25;58.17;101288.75;4999815;28;66246;-36
2022/11/06 00:49:08;;;;;;;10.43;9.45;;;;;;;29.35;59.24;101299.19;4995873;28;70785;-36
2022/11/06 00:51:38;;;;;;;15.43;12.98;;;;;;;29.40;62.40;101304.84;4994400;28;66231;-36
2022/11/06 00:54:12;;;;;;;17.77;15.85;;;;;;;29.45;63.36;101301.53;4995913;28;69209;-35
2022/11/06 00:56:42;;;;;;;28.60;16.75;;;;;;;29.46;65.01;101319.41;5012754;28;65940;-36
2022/11/06 00:59:13;;;;;;;25.25;18.05;;;;;;;29.50;66.13;101309.88;4995343;28;70152;-39
2022/11/06 01:01:44;;;;;;;20.25;17.60;;;;;;;29.42;66.23;101294.66;5009693;28;65705;-37
2022/11/06 01:04:17;;;;;;;29.00;18.87;;;;;;;29.39;67.90;101289.63;4993816;28;69089;-37
2022/11/06 01:06:51;;;;;;;44.50;24.73;;;;;;;29.56;67.52;101322.56;4992934;28;66672;-38
2022/11/06 01:09:26;;;;;;;47.88;31.42;;;;;;;29.40;69.24;101296.72;4997750;28;70113;-37
2022/11/06 01:11:58;;;;;;;45.50;31.55;;;;;;;28.98;69.84;101238.28;4998349;28;65659;-38
2022/11/06 01:14:42;;;;;;;43.08;31.58;;;;;;;29.43;69.68;101317.13;4997320;28;69503;-36
2022/11/06 01:17:12;;;;;;;50.05;33.45;;;;;;;29.26;69.98;101295.84;4998579;28;66319;-39
2022/11/06 01:19:42;;;;;;;37.60;29.77;;;;;;;29.32;67.72;101295.03;4998476;28;69568;-38
2022/11/06 01:22:12;;;;;;;34.45;26.75;;;;;;;29.46;67.79;101316.72;4997644;28;65228;-37
2022/11/06 01:24:42;;;;;;;30.92;25.10;;;;;;;29.29;67.24;101284.63;4996165;28;69988;-40
2022/11/06 01:27:13;;;;;;;26.27;23.63;;;;;;;29.54;66.04;101313.84;4995761;28;65412;-40
2022/11/06 01:29:58;;;;;;;32.47;25.40;;;;;;;29.31;66.50;101271.75;4995718;28;70196;-38
2022/11/06 01:32:28;;;;;;;30.70;22.15;;;;;;;29.56;66.15;101300.94;5011162;28;65719;-38
2022/11/06 01:34:58;;;;;;;28.13;21.23;;;;;;;29.63;66.55;101307.25;4995019;28;69332;-38
2022/11/06 01:37:28;;;;;;;23.92;20.08;;;;;;;29.64;65.86;101303.50;4995595;28;66584;-37
2022/11/06 01:39:58;;;;;;;29.80;20.15;;;;;;;29.59;65.78;101297.88;4995644;28;69337;-37
2022/11/06 01:42:28;;;;;;;26.67;20.63;;;;;;;29.63;66.19;101296.44;4996293;28;65666;-38
2022/11/06 01:45:20;;;;;;;19.45;17.48;;;;;;;29.76;64.89;101295.66;4995794;28;69577;-37
2022/11/06 01:47:50;;;;;;;30.20;21.05;;;;;;;29.67;68.15;101297.72;4993381;28;66550;-36
2022/11/06 01:50:20;;;;;;;28.88;21.35;;;;;;;29.65;68.08;101283.56;4993634;28;68994;-36
2022/11/06 01:52:51;;;;;;;27.13;21.17;;;;;;;29.41;69.08;101244.34;4993700;28;65485;-39
2022/11/06 01:55:34;;;;;;;23.77;20.27;;;;;;;29.78;69.71;101299.84;4995436;28;68764;-37
2022/11/06 01:58:08;;;;;;;65.57;24.58;;;;;;;29.31;69.17;101233.91;4994491;28;66477;-37
2022/11/06 02:00:40;;;;;;;46.47;23.50;;;;;;;29.24;69.24;101216.84;4993707;28;70550;-36
2022/11/06 02:03:13;;;;;;;40.83;23.33;;;;;;;29.77;68.54;101302.75;4997132;28;65998;-38
2022/11/06 02:05:44;;;;;;;34.05;20.15;;;;;;;29.79;68.30;101301.50;4998358;28;69723;-38
2022/11/06 02:08:18;;;;;;;34.78;18.80;;;;;;;29.77;67.92;101298.16;4998022;28;65558;-36
2022/11/06 02:10:49;;;;;;;29.38;17.55;;;;;;;29.87;67.67;101305.91;5000699;28;70591;-38
2022/11/06 02:13:53;;;;;;;19.50;15.70;;;;;;;29.81;67.58;101306.69;4981803;28;65623;-38
2022/11/06 02:16:45;;;;;;;19.42;12.98;;;;;;;29.89;67.33;101301.09;4999914;28;71107;-38
2022/11/06 02:19:30;;;;;;;15.48;13.98;;;;;;;29.95;66.97;101304.84;5001027;28;66966;-35
2022/11/06 02:22:31;;;;;;;13.90;12.57;;;;;;;29.93;67.10;101306.97;4999406;28;69333;-36
2022/11/06 02:25:09;;;;;;;12.88;11.98;;;;;;;30.02;66.31;101300.31;5001914;28;65998;-36
2022/11/06 02:27:46;;;;;;;14.25;12.85;;;;;;;30.08;66.51;101310.31;5000506;28;69560;-37
2022/11/06 02:30:17;;;;;;;14.40;13.23;;;;;;;30.14;65.55;101305.94;4994088;28;65628;-37
2022/11/06 02:32:58;;;;;;;13.43;11.95;;;;;;;29.64;66.20;101217.00;4999666;28;70403;-37
2022/11/06 02:35:41;;;;;;;13.00;12.03;;;;;;;29.66;66.22;101217.63;4999662;28;66197;-36
2022/11/06 02:38:21;;;;;;;13.55;12.27;;;;;;;30.22;65.37;101294.97;5000058;28;70510;-38
2022/11/06 02:40:56;;;;;;;13.65;12.32;;;;;;;29.86;65.17;101227.66;4992286;28;65452;-37
2022/11/06 02:43:41;;;;;;;12.27;11.38;;;;;;;29.80;64.86;101205.81;4999452;28;70232;-37
2022/11/06 02:46:19;;;;;;;12.63;11.63;;;;;;;30.27;65.25;101282.47;5001979;28;65503;-36
2022/11/06 02:48:58;;;;;;;11.65;10.85;;;;;;;29.77;65.25;101184.59;4990870;28;69534;-39
2022/11/06 02:51:31;;;;;;;11.82;11.02;;;;;;;29.85;64.97;101186.28;4997509;28;65282;-38
2022/11/06 02:54:04;;;;;;;12.70;11.50;;;;;;;30.28;64.78;101249.00;4994076;28;70554;-36
2022/11/06 02:56:38;;;;;;;11.77;10.82;;;;;;;30.30;64.37;101242.53;4999918;28;67014;-39
2022/11/06 02:59:20;;;;;;;11.00;10.30;;;;;;;29.92;64.46;101186.25;5000961;28;69593;-37
2022/11/06 03:02:06;;;;;;;12.10;11.30;;;;;;;30.34;64.57;101260.00;5001619;28;65613;-37
2022/11/06 03:05:04;;;;;;;12.23;11.23;;;;;;;30.45;64.92;101257.53;5000255;28;70429;-37
2022/11/06 03:07:43;;;;;;;11.18;10.20;;;;;;;30.08;64.56;101185.03;4999348;28;66725;-37
2022/11/06 03:10:14;;;;;;;11.40;10.50;;;;;;;30.51;64.22;101236.91;4997289;28;70085;-36
2022/11/06 03:12:52;;;;;;;11.93;10.93;;;;;;;30.55;63.82;101235.44;4995769;28;64244;-36
2022/11/06 03:15:52;;;;;;;13.63;11.60;;;;;;;30.44;66.11;101239.59;4999643;28;68664;-36
2022/11/06 03:18:42;;;;;;;14.68;13.30;;;;;;;30.14;65.39;101160.69;4998457;28;66136;-39
2022/11/06 03:21:29;;;;;;;15.57;13.80;;;;;;;30.33;65.77;101204.22;4991477;28;70104;-39
2022/11/06 03:24:38;;;;;;;13.38;12.05;;;;;;;30.13;66.27;101194.19;5001582;28;65492;-39
2022/11/06 03:27:27;;;;;;;14.35;13.10;;;;;;;30.31;66.47;101212.53;4994302;28;69856;-39
2022/11/06 03:30:15;;;;;;;10.85;9.93;;;;;;;30.25;66.32;101214.19;4992160;28;65734;-40
2022/11/06 03:33:07;;;;;;;12.75;11.13;;;;;;;30.24;66.62;101209.84;4989827;28;69569;-43
2022/11/06 03:35:45;;;;;;;11.70;10.70;;;;;;;30.33;66.89;101210.47;4990895;28;65389;-40
2022/11/06 03:38:31;;;;;;;12.95;10.25;;;;;;;30.34;67.01;101198.59;4993478;28;70260;-38
2022/11/06 03:41:13;;;;;;;12.20;10.10;;;;;;;30.01;66.76;101148.00;5008664;28;65854;-39
2022/11/06 03:43:47;;;;;;;13.57;10.27;;;;;;;30.04;67.19;101154.88;4992736;28;70724;-38
2022/11/06 03:46:23;;;;;;;11.30;10.40;;;;;;;30.31;67.09;101182.75;4991863;28;66343;-37
2022/11/06 03:49:00;;;;;;;13.32;10.40;;;;;;;29.01;66.80;100957.03;4991458;28;70845;-39
2022/11/06 03:51:40;;;;;;;11.93;10.25;;;;;;;28.93;67.13;100939.97;4993312;28;66377;-38
2022/11/06 03:54:21;;;;;;;13.27;10.23;;;;;;;30.39;67.03;101170.91;4993132;28;69340;-39
2022/11/06 03:57:00;;;;;;;11.70;10.50;;;;;;;29.81;67.22;101071.44;4995723;28;66192;-38
2022/11/06 03:59:37;;;;;;;19.05;11.40;;;;;;;30.21;66.65;101129.03;4993595;28;69514;-40
2022/11/06 04:02:07;;;;;;;11.27;10.45;;;;;;;30.48;66.85;101162.34;4993364;28;66357;-40
2022/11/06 04:04:44;;;;;;;11.38;10.23;;;;;;;30.45;67.05;101153.81;4988772;28;70095;-37
2022/11/06 04:07:19;;;;;;;12.82;11.65;;;;;;;30.44;66.84;101141.31;4988860;28;66105;-37
2022/11/06 04:15:40;;;;;;;18.10;10.75;;;;;;;30.32;66.95;101099.72;5000964;28;69436;-41
2022/11/06 04:21:39;;;;;;;13.98;10.95;;;;;;;30.54;66.57;101120.06;4995286;28;70048;-40
2022/11/06 04:27:34;;;;;;;15.90;11.88;;;;;;;30.68;63.98;101127.09;4994042;28;70722;-41
2022/11/06 04:30:16;;;;;;;12.52;11.23;;;;;;;30.26;63.10;101021.03;4988891;28;65942;-41
2022/11/06 04:32:57;;;;;;;13.52;10.60;;;;;;;30.76;62.96;101095.41;4994185;28;69719;-40
2022/11/06 04:35:43;;;;;;;11.63;10.43;;;;;;;30.88;62.50;101104.56;4993464;28;65808;-42
2022/11/06 04:38:33;;;;;;;11.70;10.15;;;;;;;30.96;61.98;101096.19;4994977;28;70342;-39
2022/11/06 04:41:59;;;;;;;13.27;10.30;;;;;;;30.99;62.96;101079.50;4992223;28;66526;-41
2022/11/06 04:45:04;;;;;;;15.98;10.32;;;;;;;30.98;63.65;101075.16;4916536;28;70361;-39
2022/11/06 04:48:17;;;;;;;11.25;10.38;;;;;;;30.83;63.75;101053.75;4915110;28;65931;-39
2022/11/06 04:50:58;;;;;;;15.10;10.30;;;;;;;30.97;64.26;101065.34;4912186;28;69759;-39
2022/11/06 04:53:35;;;;;;;13.75;9.75;;;;;;;30.96;64.43;101047.44;4913125;28;66708;-39
2022/11/06 04:56:15;;;;;;;10.20;9.40;;;;;;;30.91;64.00;101066.22;4910752;28;68902;-38
2022/11/06 04:58:49;;;;;;;10.15;9.43;;;;;;;30.80;64.02;101029.81;4934511;28;66760;-40
2022/11/06 05:01:28;;;;;;;10.25;9.45;;;;;;;30.92;64.34;101046.19;4948294;28;69960;-38
2022/11/06 05:04:24;;;;;;;10.60;9.50;;;;;;;30.88;64.40;101036.84;4984669;28;65881;-42
2022/11/06 05:06:59;;;;;;;13.65;9.95;;;;;;;30.79;64.09;101019.16;4992357;28;70560;-40
2022/11/06 05:09:30;;;;;;;9.68;8.90;;;;;;;30.86;63.99;101017.28;4991004;28;64859;-39
2022/11/06 05:12:00;;;;;;;9.55;8.73;;;;;;;30.92;63.76;101024.53;4997105;28;70431;-39
2022/11/06 05:14:53;;;;;;;12.15;8.57;;;;;;;30.77;64.17;101007.72;4996471;28;66870;-41
2022/11/06 05:17:42;;;;;;;12.32;9.93;;;;;;;30.96;63.71;101019.53;4973436;28;69597;-40
2022/11/06 05:20:46;;;;;;;10.05;9.10;;;;;;;30.97;63.81;101011.16;4960351;28;66336;-40
2022/11/06 05:27:08;;;;;;;18.98;8.85;;;;;;;30.95;62.88;101002.41;4930274;28;66955;-35
2022/11/06 05:30:23;;;;;;;9.93;8.70;;;;;;;30.88;61.61;101004.34;4910828;28;70459;-41
2022/11/06 05:33:32;;;;;;;13.90;8.40;;;;;;;30.76;60.44;100981.66;4892174;29;66233;-40
2022/11/06 05:36:19;;;;;;;8.60;8.05;;;;;;;30.75;60.09;100975.41;4893232;29;68637;-41
2022/11/06 05:39:03;;;;;;;8.60;7.78;;;;;;;30.72;59.15;100971.28;4891354;29;65860;-37
2022/11/06 05:42:04;;;;;;;11.00;7.70;;;;;;;30.66;58.89;100966.72;4894086;29;70138;-39
2022/11/06 05:44:37;;;;;;;18.37;6.60;;;;;;;30.65;58.19;100964.25;4909675;28;66149;-40
2022/11/06 05:47:07;;;;;;;13.05;7.03;;;;;;;30.62;58.53;100959.25;4948009;28;70101;-37
2022/11/06 05:49:37;;;;;;;16.30;7.75;;;;;;;30.64;59.04;100952.56;4994800;28;66281;-39
2022/11/06 05:52:07;;;;;;;8.52;7.93;;;;;;;30.64;58.70;100947.16;4998065;28;70436;-39
2022/11/06 05:54:37;;;;;;;9.13;6.93;;;;;;;30.63;58.20;100953.63;4996939;28;66537;-40
2022/11/06 05:57:07;;;;;;;7.82;6.57;;;;;;;30.62;57.90;100943.00;4996119;28;69337;-37
2022/11/06 05:59:38;;;;;;;10.38;6.90;;;;;;;30.25;57.75;100884.06;4994147;28;66406;-39
2022/11/06 06:02:08;;;;;;;12.52;7.47;;;;;;;30.60;57.22;100935.13;4989351;28;69375;-41
2022/11/06 06:04:39;;;;;;;12.68;6.78;;;;;;;30.58;56.55;100931.78;4985530;28;66063;-37
2022/11/06 06:07:09;;;;;;;9.85;7.07;;;;;;;30.58;56.27;100925.53;4995666;28;69809;-36
2022/11/06 06:09:39;;;;;;;6.68;6.18;;;;;;;30.57;56.03;100919.31;4994823;28;65593;-40
2022/11/06 06:12:12;;;;;;;7.32;6.07;;;;;;;30.10;55.46;100837.50;4993804;28;71098;-38
2022/11/06 06:14:42;;;;;;;6.75;6.25;;;;;;;30.50;54.94;100907.69;4996485;28;66160;-40
2022/11/06 06:17:18;;;;;;;8.18;6.35;;;;;;;30.50;54.68;100897.66;4992582;28;70036;-37
2022/11/06 06:19:48;;;;;;;5.93;5.53;;;;;;;30.51;53.77;100909.34;4996351;28;65628;-38
2022/11/06 06:22:18;;;;;;;5.28;4.97;;;;;;;30.49;53.44;100900.63;4995254;28;70329;-37
2022/11/06 06:24:48;;;;;;;7.35;5.88;;;;;;;30.54;53.48;100903.50;4996053;28;65819;-38
2022/11/06 06:27:18;;;;;;;8.63;5.88;;;;;;;30.53;53.03;100891.00;4998362;28;70285;-37
2022/11/06 06:29:48;;;;;;;6.60;6.00;;;;;;;30.49;52.51;100884.38;4991331;28;65334;-38
2022/11/06 06:32:18;;;;;;;5.90;5.30;;;;;;;30.35;52.41;100855.72;4998055;28;69949;-42
2022/11/06 06:34:49;;;;;;;5.93;5.43;;;;;;;30.36;52.00;100847.38;4998745;28;66370;-38
2022/11/06 06:37:18;;;;;;;8.98;5.72;;;;;;;30.50;52.67;100864.38;5000505;28;69515;-37
2022/11/06 06:39:49;;;;;;;8.57;5.55;;;;;;;30.45;52.50;100858.78;4996872;28;66177;-37
2022/11/06 06:42:18;;;;;;;7.32;4.53;;;;;;;30.51;51.82;100863.34;5000542;28;69728;-37
2022/11/06 06:44:48;;;;;;;6.38;5.00;;;;;;;30.42;52.01;100845.69;4997549;28;65570;-39
2022/11/06 06:47:18;;;;;;;5.68;5.20;;;;;;;30.53;51.60;100854.97;4995432;28;69582;-37
2022/11/06 06:49:48;;;;;;;5.85;5.45;;;;;;;30.51;51.24;100849.81;4998851;28;66976;-36
2022/11/06 06:52:19;;;;;;;6.10;4.95;;;;;;;30.45;51.16;100840.69;4997995;28;70151;-36
2022/11/06 06:54:50;;;;;;;5.40;5.10;;;;;;;30.54;50.82;100852.06;4995453;28;66481;-37
2022/11/06 06:57:20;;;;;;;5.60;5.20;;;;;;;30.48;50.39;100834.81;4990812;28;69933;-37
2022/11/06 06:59:50;;;;;;;5.70;4.85;;;;;;;30.42;50.31;100829.44;4997141;28;65597;-37
2022/11/06 07:02:20;;;;;;;5.22;4.82;;;;;;;30.40;49.76;100820.72;4996494;28;69789;-37
2022/11/06 07:04:50;;;;;;;6.22;4.45;;;;;;;30.39;50.26;100814.47;4995972;28;65018;-38
2022/11/06 07:07:20;;;;;;;5.43;5.10;;;;;;;30.47;49.95;100821.50;4998483;28;69949;-37
2022/11/06 07:09:51;;;;;;;5.80;5.40;;;;;;;30.53;49.23;100831.44;4994825;28;65239;-39
2022/11/06 07:12:21;;;;;;;4.95;4.65;;;;;;;30.56;49.74;100833.72;4996242;28;70030;-37
2022/11/06 07:14:51;;;;;;;6.07;5.43;;;;;;;30.49;49.33;100824.81;4998710;28;65320;-38
2022/11/06 07:17:21;;;;;;;5.32;5.03;;;;;;;30.56;49.46;100835.59;4993562;28;69885;-39
2022/11/06 07:19:51;;;;;;;5.20;4.90;;;;;;;30.56;48.99;100828.28;4995469;28;67049;-38
2022/11/06 07:22:21;;;;;;;5.20;4.88;;;;;;;30.56;49.42;100825.59;4992445;28;69813;-38
2022/11/06 07:25:05;;;;;;;5.85;5.38;;;;;;;30.39;49.00;100802.81;4994814;28;66410;-37
2022/11/06 07:27:35;;;;;;;6.20;5.78;;;;;;;30.53;48.71;100828.72;4994222;28;70001;-38
2022/11/06 07:30:05;;;;;;;5.75;5.35;;;;;;;30.48;49.08;100817.75;4990347;28;66778;-36
2022/11/06 07:32:36;;;;;;;7.57;5.57;;;;;;;30.49;48.34;100825.66;4992237;28;70260;-38
2022/11/06 07:35:06;;;;;;;5.68;5.28;;;;;;;30.54;48.73;100816.88;4993056;28;65554;-39
2022/11/06 07:37:36;;;;;;;4.88;4.57;;;;;;;30.46;48.30;100803.59;4992372;28;69772;-38
2022/11/06 07:40:07;;;;;;;6.68;5.65;;;;;;;30.54;48.56;100808.75;4994440;28;67008;-38
2022/11/06 07:42:37;;;;;;;7.80;5.43;;;;;;;30.43;48.26;100801.34;4996392;28;70121;-39
2022/11/06 07:45:16;;;;;;;13.05;5.63;;;;;;;30.50;48.33;100811.06;4995431;28;65698;-38
2022/11/06 07:47:46;;;;;;;6.10;5.65;;;;;;;30.48;48.37;100812.34;4994576;28;69956;-38
2022/11/06 07:50:16;;;;;;;6.03;5.63;;;;;;;30.46;48.12;100804.44;4973963;28;66002;-39
2022/11/06 07:52:46;;;;;;;5.80;5.50;;;;;;;30.48;47.59;100796.94;4998585;28;69604;-37
2022/11/06 07:55:17;;;;;;;5.97;5.57;;;;;;;30.45;47.92;100801.94;4994742;28;66083;-40
2022/11/06 07:57:47;;;;;;;6.15;5.75;;;;;;;30.48;47.72;100806.94;4994077;28;70609;-38
2022/11/06 08:00:17;;;;;;;6.30;5.93;;;;;;;30.47;47.31;100797.13;4997861;28;66306;-38
2022/11/06 08:02:55;;;;;;;7.05;6.55;;;;;;;30.49;47.93;100797.75;4998018;28;69581;-36
2022/11/06 08:05:25;;;;;;;9.82;5.72;;;;;;;30.58;48.39;100792.91;4995052;28;66529;-39
2022/11/06 08:07:58;;;;;;;5.72;5.32;;;;;;;30.31;48.69;100735.44;4998288;28;69447;-37
2022/11/06 08:10:28;;;;;;;5.97;5.68;;;;;;;30.62;49.55;100775.16;4992628;28;65805;-36
2022/11/06 08:13:01;;;;;;;6.03;5.53;;;;;;;30.73;49.65;100788.81;4997655;28;69784;-38
2022/11/06 08:15:32;;;;;;;5.88;5.47;;;;;;;30.84;50.65;100799.97;4994790;28;65692;-36
2022/11/06 08:18:32;;;;;;;6.90;6.18;;;;;;;30.91;50.45;100801.59;4993887;28;70278;-37
2022/11/06 08:21:03;;;;;;;6.32;6.00;;;;;;;30.97;50.68;100810.72;4996033;28;66399;-37
2022/11/06 08:23:35;;;;;;;6.20;5.68;;;;;;;30.90;51.28;100793.69;4995246;28;69995;-36
2022/11/06 08:26:06;;;;;;;6.07;5.78;;;;;;;30.55;52.01;100737.31;5014151;28;65649;-41
2022/11/06 08:28:36;;;;;;;6.97;5.27;;;;;;;31.05;51.73;100807.72;5000799;28;69385;-38
2022/11/06 08:31:07;;;;;;;6.95;6.30;;;;;;;31.03;52.33;100798.97;4999503;28;65660;-36
2022/11/06 08:33:38;;;;;;;6.30;5.80;;;;;;;31.12;52.39;100808.50;5000863;28;70173;-37
2022/11/06 08:36:09;;;;;;;7.55;6.28;;;;;;;31.14;52.71;100800.13;4998922;28;67438;-37
2022/11/06 08:38:40;;;;;;;5.93;5.63;;;;;;;31.07;53.01;100783.13;4998503;28;68780;-37
2022/11/06 08:41:11;;;;;;;6.05;5.65;;;;;;;31.22;53.23;100809.84;5000115;28;66836;-38
2022/11/06 08:43:41;;;;;;;6.40;5.88;;;;;;;31.22;53.58;100796.28;4999624;28;69919;-38
2022/11/06 08:46:30;;;;;;;5.95;5.55;;;;;;;31.18;53.62;100795.94;4998886;28;66726;-41
2022/11/06 08:49:35;;;;;;;6.43;5.93;;;;;;;31.25;53.99;100809.38;4974578;28;70521;-39
2022/11/06 08:52:14;;;;;;;6.53;6.13;;;;;;;31.29;55.52;100807.91;4999462;28;66435;-36
2022/11/06 08:55:04;;;;;;;15.32;8.35;;;;;;;31.29;56.29;100806.03;4995400;28;70341;-37
2022/11/06 08:57:40;;;;;;;17.70;13.55;;;;;;;31.34;57.98;100805.31;4998319;28;65877;-39
2022/11/06 09:00:29;;;;;;;24.27;17.08;;;;;;;31.32;58.92;100802.03;4996946;28;70925;-38
2022/11/06 09:03:02;;;;;;;20.92;17.83;;;;;;;31.45;58.26;100807.31;4997756;28;65370;-40
2022/11/06 09:05:33;;;;;;;24.05;17.70;;;;;;;31.55;57.78;100804.09;4996925;28;69598;-38
2022/11/06 09:08:03;;;;;;;23.98;18.52;;;;;;;31.20;58.13;100733.34;4995824;28;65936;-38
2022/11/06 09:10:34;;;;;;;27.70;20.92;;;;;;;31.66;57.78;100797.91;4997846;28;70437;-41
2022/11/06 09:13:07;;;;;;;24.67;20.13;;;;;;;31.71;57.76;100795.34;4998072;28;66158;-37
2022/11/06 09:15:37;;;;;;;24.40;19.95;;;;;;;31.80;57.64;100801.28;4996152;28;69827;-40
2022/11/06 09:18:27;;;;;;;22.20;18.80;;;;;;;31.85;57.24;100812.28;4995812;28;65230;-37
2022/11/06 09:21:37;;;;;;;22.63;18.52;;;;;;;31.89;57.64;100824.31;4937149;28;70263;-39
2022/11/06 09:24:07;;;;;;;22.58;19.60;;;;;;;31.94;57.58;100832.63;4916230;28;65889;-38
2022/11/06 09:26:37;;;;;;;27.88;20.90;;;;;;;31.88;57.62;100822.66;4935311;28;70460;-38
2022/11/06 09:29:07;;;;;;;26.33;21.67;;;;;;;31.99;57.93;100846.34;4940467;28;65291;-38
2022/11/06 09:31:37;;;;;;;23.00;19.92;;;;;;;32.02;57.78;100845.06;4940746;28;69302;-38
2022/11/06 09:34:08;;;;;;;21.92;19.73;;;;;;;32.04;57.54;100851.09;4998117;28;65595;-38
2022/11/06 09:36:38;;;;;;;23.90;21.40;;;;;;;32.04;58.40;100857.34;4995152;28;69775;-40
2022/11/06 09:39:10;;;;;;;29.88;26.27;;;;;;;32.04;58.60;100859.22;4994981;28;65312;-38
2022/11/06 09:41:56;;;;;;;31.95;24.23;;;;;;;31.88;59.06;100822.66;4996133;28;70288;-40
2022/11/06 09:44:58;;;;;;;24.98;21.08;;;;;;;31.98;59.15;100839.25;5000513;28;65733;-38
2022/11/06 09:47:35;;;;;;;23.90;21.40;;;;;;;31.67;59.12;100774.31;4985657;28;70537;-39
2022/11/06 09:50:38;;;;;;;29.92;26.67;;;;;;;31.95;59.15;100850.53;5000164;28;65417;-40
2022/11/06 09:57:41;;;;;;;104.63;89.05;;;;;;;31.97;58.82;100881.00;4990946;28;66315;-39
2022/11/06 10:00:16;;;;;;;89.25;75.95;;;;;;;31.59;58.86;100803.41;4997788;28;70518;-38
2022/11/06 10:02:48;;;;;;;84.97;69.38;;;;;;;31.61;58.72;100812.13;4995190;28;65349;-38
2022/11/06 10:05:39;;;;;;;88.78;74.53;;;;;;;32.00;59.09;100891.41;4996319;28;70159;-42
2022/11/06 10:08:29;;;;;;;76.78;64.15;;;;;;;31.28;59.45;100771.00;4997150;28;65509;-38
2022/11/06 10:11:02;;;;;;;77.82;58.70;;;;;;;32.10;59.26;100890.03;4995717;28;70176;-39
2022/11/06 10:13:56;;;;;;;75.72;58.05;;;;;;;32.08;59.61;100892.97;4993967;28;67038;-39
2022/11/06 10:16:32;;;;;;;66.03;54.58;;;;;;;32.07;59.34;100901.31;4997291;28;71037;-40
2022/11/06 10:19:18;;;;;;;62.22;51.53;;;;;;;32.05;59.80;100893.44;4996224;28;66356;-39
2022/11/06 10:22:07;;;;;;;67.72;52.78;;;;;;;31.54;62.00;100822.25;4993788;28;70262;-41
2022/11/06 10:24:44;;;;;;;59.25;47.67;;;;;;;31.89;63.44;100911.13;4992712;28;65544;-36
2022/11/06 10:27:23;;;;;;;65.32;51.00;;;;;;;31.55;64.54;100888.97;4998252;28;69497;-38
2022/11/06 10:30:15;;;;;;;60.85;48.72;;;;;;;31.63;65.91;100944.78;4997409;28;67778;-42
2022/11/06 10:33:03;;;;;;;58.00;46.15;;;;;;;31.55;66.75;100956.75;4995609;28;69753;-38
2022/11/06 10:35:43;;;;;;;49.88;35.25;;;;;;;31.54;67.63;100968.66;4997988;28;65657;-40
2022/11/06 10:38:24;;;;;;;35.28;29.65;;;;;;;30.94;67.77;100881.59;4998195;28;69612;-37
2022/11/06 10:40:55;;;;;;;33.63;28.60;;;;;;;31.37;67.96;100972.94;4998704;28;65873;-37
2022/11/06 10:44:00;;;;;;;49.00;37.53;;;;;;;31.30;68.72;100977.59;4999519;28;70025;-38
2022/11/06 10:46:37;;;;;;;45.95;36.88;;;;;;;30.80;68.37;100880.03;4997513;28;65474;-38
2022/11/06 10:49:43;;;;;;;43.13;34.17;;;;;;;31.14;69.27;100968.94;4998150;28;70080;-38
2022/11/06 10:52:40;;;;;;;33.80;27.65;;;;;;;31.23;69.07;100976.78;4998390;28;66316;-38
2022/11/06 10:56:04;;;;;;;40.22;27.02;;;;;;;31.13;70.04;100967.28;4977973;28;70119;-41
2022/11/06 10:58:39;;;;;;;37.42;27.40;;;;;;;31.21;69.78;100978.91;4993240;28;64471;-37
2022/11/06 11:01:28;;;;;;;35.00;27.05;;;;;;;31.21;69.97;100995.19;4996711;28;70192;-39
2022/11/06 11:03:59;;;;;;;35.95;28.67;;;;;;;31.22;69.69;101010.38;4983673;28;64905;-39
2022/11/06 11:06:54;;;;;;;35.08;25.85;;;;;;;31.00;70.39;100974.69;4971319;28;70179;-40
2022/11/06 11:10:02;;;;;;;34.58;25.83;;;;;;;30.84;69.83;100957.06;4996201;28;67177;-37
2022/11/06 11:13:09;;;;;;;28.90;25.77;;;;;;;31.19;70.07;101024.38;4941248;28;69641;-38
2022/11/06 11:16:06;;;;;;;28.20;25.35;;;;;;;31.23;70.07;101026.44;4940291;28;66265;-40
2022/11/06 11:21:35;;;;;;;28.60;24.55;;;;;;;31.08;69.87;101012.34;4931708;28;65508;-38
2022/11/06 11:24:10;;;;;;;33.50;25.98;;;;;;;31.22;70.13;101029.34;4981851;28;68576;-39
2022/11/06 11:26:59;;;;;;;30.42;25.55;;;;;;;31.21;69.67;101049.38;4986838;28;66135;-37
2022/11/06 11:29:46;;;;;;;34.60;24.35;;;;;;;31.21;69.63;101054.78;4995808;28;69775;-37
2022/11/06 11:32:19;;;;;;;29.45;23.35;;;;;;;31.20;69.65;101061.25;4996867;28;65962;-36
2022/11/06 11:34:53;;;;;;;28.70;22.30;;;;;;;31.20;70.16;101059.38;5000522;28;69683;-37
2022/11/06 11:37:34;;;;;;;30.15;21.52;;;;;;;30.91;70.28;101009.34;4978739;28;65061;-37
2022/11/06 11:40:34;;;;;;;27.05;21.45;;;;;;;31.17;70.17;101065.22;4994978;28;70426;-39
2022/11/06 11:43:24;;;;;;;29.13;20.48;;;;;;;31.16;70.69;101077.94;4998649;28;66456;-37
2022/11/06 11:46:09;;;;;;;20.95;18.85;;;;;;;31.22;70.77;101087.09;4997019;28;69455;-39
2022/11/06 11:48:48;;;;;;;25.27;18.73;;;;;;;31.28;70.51;101085.38;4998763;28;65879;-38
2022/11/06 11:51:27;;;;;;;24.88;17.77;;;;;;;31.29;70.33;101089.78;4995561;28;69934;-37
2022/11/06 11:54:17;;;;;;;23.90;18.33;;;;;;;31.30;70.25;101094.97;4997475;28;65754;-37
2022/11/06 11:57:00;;;;;;;22.30;16.58;;;;;;;31.33;70.91;101097.22;4998306;28;70197;-41
2022/11/06 11:59:56;;;;;;;23.83;18.23;;;;;;;31.31;71.61;101106.63;5000795;28;66581;-38
2022/11/06 12:02:48;;;;;;;20.92;16.83;;;;;;;31.19;71.65;101067.72;4996321;28;69216;-38
2022/11/06 12:05:45;;;;;;;20.02;17.08;;;;;;;31.32;71.44;101097.47;4996642;28;65712;-41
2022/11/06 12:08:25;;;;;;;24.92;21.38;;;;;;;31.32;70.99;101100.16;4993546;28;70156;-36
2022/11/06 12:11:03;;;;;;;28.08;23.23;;;;;;;31.30;70.73;101122.06;4980537;28;65816;-40
2022/11/06 12:21:40;;;;;;;34.70;30.50;;;;;;;31.11;70.42;101126.53;4876113;29;70410;-42
2022/11/06 12:24:21;;;;;;;40.63;29.55;;;;;;;30.69;70.07;101061.06;4810194;29;66843;-41
2022/11/06 12:27:32;;;;;;;29.73;26.55;;;;;;;31.11;70.72;101158.22;4850639;28;69161;-38
2022/11/06 12:30:09;;;;;;;31.02;25.40;;;;;;;30.70;70.30;101086.25;4935177;28;65846;-38
2022/11/06 12:32:59;;;;;;;23.60;21.13;;;;;;;31.10;70.49;101179.06;4991553;28;69068;-38
2022/11/06 12:35:29;;;;;;;24.25;21.88;;;;;;;31.19;70.17;101184.25;5004706;28;66266;-39
2022/11/06 12:38:23;;;;;;;24.15;21.90;;;;;;;31.14;70.10;101180.28;4997251;28;69544;-42
2022/11/06 12:41:15;;;;;;;22.75;20.33;;;;;;;31.12;69.80;101187.84;4997109;28;66291;-39